createdAt,value
2018-08-13T00:02:03.614Z,100410.50
2018-08-13T00:04:31.075Z,100406.33
2018-08-13T00:06:58.459Z,100402.89
2018-08-13T00:09:31.384Z,100404.02
2018-08-13T00:11:58.915Z,100395.05
2018-08-13T00:14:26.397Z,100389.61
2018-08-13T00:16:53.723Z,100390.55
2018-08-13T00:19:21.193Z,100386.94
2018-08-13T00:21:49.160Z,100382.77
2018-08-13T00:24:16.505Z,100372.59
2018-08-13T00:26:44.111Z,100372.86
2018-08-13T00:29:11.578Z,100368.80
2018-08-13T00:31:39.063Z,100367.07
2018-08-13T00:34:06.492Z,100367.59
2018-08-13T00:36:33.836Z,100356.91
2018-08-13T00:39:01.339Z,100361.67
2018-08-13T00:41:29.123Z,100364.28
2018-08-13T00:43:56.533Z,100366.09
2018-08-13T00:46:23.883Z,100370.62
2018-08-13T00:48:51.160Z,100367.09
2018-08-13T00:51:18.507Z,100356.69
2018-08-13T00:53:46.055Z,100360.39
2018-08-13T00:56:13.371Z,100360.92
2018-08-13T00:58:40.777Z,100353.55
2018-08-13T01:01:08.124Z,100348.05
2018-08-13T01:03:35.506Z,100344.51
2018-08-13T01:06:02.838Z,100343.08
2018-08-13T01:08:30.140Z,100337.66
2018-08-13T01:10:57.574Z,100338.41
2018-08-13T01:13:24.936Z,100329.98
2018-08-13T01:15:53.019Z,100325.02
2018-08-13T01:18:20.478Z,100332.28
2018-08-13T01:20:47.975Z,100333.86
2018-08-13T01:23:15.284Z,100334.92
2018-08-13T01:25:42.677Z,100330.22
2018-08-13T01:28:10.065Z,100322.09
2018-08-13T01:30:37.479Z,100314.41
2018-08-13T01:33:05.957Z,100321.19
2018-08-13T01:35:33.261Z,100317.12
2018-08-13T01:38:00.609Z,100318.41
2018-08-13T01:40:28.032Z,100308.09
2018-08-13T01:42:55.473Z,100303.72
2018-08-13T01:45:22.798Z,100307.72
2018-08-13T01:47:50.078Z,100305.23
2018-08-13T01:50:17.531Z,100308.47
2018-08-13T01:52:44.811Z,100306.75
2018-08-13T01:55:12.161Z,100303.20
2018-08-13T01:57:39.501Z,100304.27
2018-08-13T02:00:12.077Z,100299.38
2018-08-13T02:02:39.388Z,100293.95
2018-08-13T02:05:06.927Z,100292.71
2018-08-13T02:07:34.290Z,100283.61
2018-08-13T02:10:01.572Z,100272.47
2018-08-13T02:12:28.850Z,100264.56
2018-08-13T02:14:56.263Z,100260.72
2018-08-13T02:17:23.834Z,100260.95
2018-08-13T02:19:51.312Z,100255.98
2018-08-13T02:22:18.750Z,100250.13
2018-08-13T02:24:46.295Z,100250.87
2018-08-13T02:27:13.893Z,100249.22
2018-08-13T02:29:41.373Z,100245.91
2018-08-13T02:32:08.692Z,100249.45
2018-08-13T02:34:36.094Z,100247.57
2018-08-13T02:37:03.501Z,100244.56
2018-08-13T02:39:30.887Z,100249.08
2018-08-13T02:41:58.252Z,100256.86
2018-08-13T02:44:25.909Z,100257.99
2018-08-13T02:46:53.505Z,100251.26
2018-08-13T02:49:20.935Z,100243.09
2018-08-13T02:51:48.350Z,100237.90
2018-08-13T02:54:15.962Z,100235.23
2018-08-13T02:56:43.506Z,100230.89
2018-08-13T02:59:11.059Z,100238.95
2018-08-13T03:01:39.155Z,100240.53
2018-08-13T03:04:06.497Z,100240.69
2018-08-13T03:06:33.938Z,100237.91
2018-08-13T03:09:01.235Z,100233.84
2018-08-13T03:11:28.574Z,100232.64
2018-08-13T03:13:55.953Z,100226.09
2018-08-13T03:16:24.356Z,100233.09
2018-08-13T03:18:52.331Z,100236.70
2018-08-13T03:21:19.780Z,100239.41
2018-08-13T03:23:47.549Z,100242.42
2018-08-13T03:26:14.835Z,100243.18
2018-08-13T03:28:42.154Z,100243.63
2018-08-13T03:31:09.471Z,100237.61
2018-08-13T03:33:37.702Z,100236.81
2018-08-13T03:36:04.963Z,100237.34
2018-08-13T03:38:33.049Z,100234.86
2018-08-13T03:41:01.283Z,100228.09
2018-08-13T03:43:28.825Z,100227.67
2018-08-13T03:45:56.121Z,100228.13
2018-08-13T03:48:23.433Z,100223.77
2018-08-13T03:50:50.701Z,100228.05
2018-08-13T03:53:18.057Z,100226.47
2018-08-13T03:55:45.362Z,100230.98
2018-08-13T03:58:12.776Z,100223.39
2018-08-13T04:00:40.040Z,100222.26
2018-08-13T04:03:07.492Z,100213.83
2018-08-13T04:05:34.909Z,100208.95
2018-08-13T04:08:02.322Z,100200.83
2018-08-13T04:10:30.038Z,100200.59
2018-08-13T04:12:57.459Z,100192.47
2018-08-13T04:15:24.737Z,100191.88
2018-08-13T04:17:52.028Z,100194.50
2018-08-13T04:20:19.372Z,100190.97
2018-08-13T04:22:46.738Z,100190.74
2018-08-13T04:25:14.123Z,100182.32
2018-08-13T04:27:41.480Z,100180.29
2018-08-13T04:30:12.405Z,100174.05
2018-08-13T04:32:39.882Z,100178.34
2018-08-13T04:35:07.145Z,100182.84
2018-08-13T04:37:34.512Z,100179.61
2018-08-13T04:40:01.747Z,100182.39
2018-08-13T04:42:29.019Z,100189.99
2018-08-13T04:44:56.261Z,100197.52
2018-08-13T04:47:24.150Z,100190.22
2018-08-13T04:49:51.397Z,100183.00
2018-08-13T04:52:18.664Z,100188.27
2018-08-13T04:54:46.648Z,100192.40
2018-08-13T04:57:13.998Z,100187.66
2018-08-13T04:59:41.308Z,100192.55
2018-08-13T05:02:08.689Z,100196.84
2018-08-13T05:04:35.985Z,100186.30
2018-08-13T05:07:03.554Z,100183.37
2018-08-13T05:09:30.826Z,100190.22
2018-08-13T05:11:58.686Z,100197.59
2018-08-13T05:14:26.773Z,100197.59
2018-08-13T05:16:54.112Z,100192.80
2018-08-13T05:19:21.373Z,100195.36
2018-08-13T05:21:49.318Z,100193.52
2018-08-13T05:24:17.346Z,100194.13
2018-08-13T05:26:45.054Z,100194.20
2018-08-13T05:29:12.785Z,100194.05
2018-08-13T05:31:40.205Z,100198.33
2018-08-13T05:34:08.134Z,100199.76
2018-08-13T05:36:35.385Z,100196.00
2018-08-13T05:39:03.380Z,100197.35
2018-08-13T05:41:30.627Z,100204.42
2018-08-13T05:43:58.046Z,100213.16
2018-08-13T05:46:25.345Z,100219.92
2018-08-13T05:48:52.929Z,100218.80
2018-08-13T05:51:20.329Z,100210.67
2018-08-13T05:53:47.592Z,100213.16
2018-08-13T05:56:14.887Z,100206.75
2018-08-13T05:58:42.273Z,100205.84
2018-08-13T06:01:09.580Z,100211.33
2018-08-13T06:03:36.916Z,100215.80
2018-08-13T06:06:04.210Z,100213.77
2018-08-13T06:08:31.841Z,100210.97
2018-08-13T06:10:59.309Z,100209.22
2018-08-13T06:13:26.809Z,100202.65
2018-08-13T06:15:54.052Z,100202.30
2018-08-13T06:18:21.521Z,100208.15
2018-08-13T06:20:48.863Z,100210.09
2018-08-13T06:23:16.258Z,100221.08
2018-08-13T06:25:43.582Z,100217.24
2018-08-13T06:28:11.121Z,100211.22
2018-08-13T06:30:38.430Z,100220.91
2018-08-13T06:33:05.952Z,100218.92
2018-08-13T06:35:33.296Z,100219.87
2018-08-13T06:38:00.752Z,100218.73
2018-08-13T06:40:28.291Z,100220.97
2018-08-13T06:42:55.574Z,100230.05
2018-08-13T06:45:22.840Z,100233.36
2018-08-13T06:47:50.570Z,100227.94
2018-08-13T06:50:17.918Z,100223.05
2018-08-13T06:52:45.382Z,100225.41
2018-08-13T06:55:12.783Z,100230.69
2018-08-13T06:57:45.071Z,100230.92
2018-08-13T07:00:13.495Z,100230.81
2018-08-13T07:02:40.869Z,100228.86
2018-08-13T07:05:09.295Z,100220.72
2018-08-13T07:07:37.354Z,100232.34
2018-08-13T07:10:08.551Z,100230.58
2018-08-13T07:12:35.884Z,100229.09
2018-08-13T07:15:03.677Z,100234.23
2018-08-13T07:17:31.068Z,100227.68
2018-08-13T07:19:58.423Z,100223.05
2018-08-13T07:22:25.842Z,100228.78
2018-08-13T07:24:53.322Z,100225.72
2018-08-13T07:27:20.673Z,100227.75
2018-08-13T07:29:48.159Z,100223.25
2018-08-13T07:32:15.763Z,100221.61
2018-08-13T07:34:43.117Z,100223.12
2018-08-13T07:37:10.551Z,100227.07
2018-08-13T07:39:37.947Z,100228.56
2018-08-13T07:42:05.471Z,100229.69
2018-08-13T07:44:33.082Z,100223.53
2018-08-13T07:47:00.589Z,100228.03
2018-08-13T07:49:27.868Z,100226.48
2018-08-13T07:51:55.154Z,100230.52
2018-08-13T07:54:22.512Z,100234.14
2018-08-13T07:56:50.176Z,100242.05
2018-08-13T07:59:17.628Z,100231.55
2018-08-13T08:01:45.090Z,100239.23
2018-08-13T08:04:12.516Z,100243.78
2018-08-13T08:06:40.569Z,100247.87
2018-08-13T08:09:09.377Z,100247.67
2018-08-13T08:11:37.040Z,100249.52
2018-08-13T08:14:04.998Z,100251.49
2018-08-13T08:16:32.481Z,100254.27
2018-08-13T08:18:59.914Z,100251.89
2018-08-13T08:21:27.355Z,100248.35
2018-08-13T08:23:54.750Z,100249.14
2018-08-13T08:26:22.241Z,100246.73
2018-08-13T08:28:50.977Z,100255.64
2018-08-13T08:31:18.516Z,100256.66
2018-08-13T08:33:46.015Z,100249.92
2018-08-13T08:36:14.649Z,100250.91
2018-08-13T08:38:43.613Z,100248.08
2018-08-13T08:41:11.106Z,100247.95
2018-08-13T08:43:38.604Z,100254.27
2018-08-13T08:46:06.208Z,100245.28
2018-08-13T08:48:33.570Z,100254.50
2018-08-13T08:51:00.935Z,100251.78
2018-08-13T08:53:28.347Z,100252.92
2018-08-13T08:55:55.786Z,100251.50
2018-08-13T08:58:23.347Z,100248.09
2018-08-13T09:00:50.942Z,100250.42
2018-08-13T09:03:18.274Z,100247.91
2018-08-13T09:05:45.756Z,100248.73
2018-08-13T09:08:13.143Z,100256.10
2018-08-13T09:10:40.566Z,100256.98
2018-08-13T09:13:07.904Z,100258.69
2018-08-13T09:15:35.442Z,100256.77
2018-08-13T09:18:14.093Z,100259.75
2018-08-13T09:20:52.894Z,100266.25
2018-08-13T09:23:31.647Z,100269.74
2018-08-13T09:26:10.521Z,100264.81
2018-08-13T09:28:49.392Z,100259.45
2018-08-13T09:31:28.295Z,100264.07
2018-08-13T09:34:07.907Z,100261.61
2018-08-13T09:36:35.369Z,100254.11
2018-08-13T09:39:03.361Z,100255.58
2018-08-13T09:41:31.553Z,100253.70
2018-08-13T09:43:59.353Z,100250.83
2018-08-13T09:46:26.807Z,100254.71
2018-08-13T09:48:54.332Z,100249.55
2018-08-13T09:51:21.729Z,100252.55
2018-08-13T09:53:49.359Z,100245.67
2018-08-13T09:56:16.736Z,100245.53
2018-08-13T09:58:44.029Z,100244.47
2018-08-13T10:01:12.112Z,100240.25
2018-08-13T10:03:40.138Z,100242.86
2018-08-13T10:06:07.593Z,100238.41
2018-08-13T10:08:35.001Z,100239.41
2018-08-13T10:11:02.376Z,100237.61
2018-08-13T10:13:29.973Z,100233.41
2018-08-13T10:15:57.404Z,100232.41
2018-08-13T10:18:24.782Z,100235.55
2018-08-13T10:20:52.166Z,100245.30
2018-08-13T10:23:19.495Z,100268.44
2018-08-13T10:25:47.154Z,100316.68
2018-08-13T10:28:15.449Z,100217.01
2018-08-13T10:30:42.857Z,100227.28
2018-08-13T10:33:10.213Z,100222.41
2018-08-13T10:35:37.533Z,100226.65
2018-08-13T10:38:04.947Z,100231.41
2018-08-13T10:40:32.341Z,100232.78
2018-08-13T10:42:59.766Z,100272.57
2018-08-13T10:45:27.279Z,100308.17
2018-08-13T10:47:55.538Z,100230.25
2018-08-13T10:50:22.848Z,100237.80
2018-08-13T10:52:50.237Z,100222.80
2018-08-13T10:55:17.573Z,100225.36
2018-08-13T10:57:44.944Z,100223.09
2018-08-13T11:00:14.619Z,100221.52
2018-08-13T11:02:42.006Z,100218.00
2018-08-13T11:05:10.786Z,100218.77
2018-08-13T11:07:38.228Z,100220.82
2018-08-13T11:10:07.702Z,100222.24
2018-08-13T11:12:35.557Z,100227.80
2018-08-13T11:15:03.069Z,100223.39
2018-08-13T11:17:30.578Z,100216.36
2018-08-13T11:19:58.057Z,100227.84
2018-08-13T11:22:25.412Z,100214.73
2018-08-13T11:24:52.812Z,100229.30
2018-08-13T11:27:20.269Z,100231.91
2018-08-13T11:29:47.682Z,100263.34
2018-08-13T11:32:15.160Z,100280.35
2018-08-13T11:34:42.622Z,100271.50
2018-08-13T11:37:10.348Z,100264.70
2018-08-13T11:39:37.714Z,100267.37
2018-08-13T11:42:05.436Z,100255.62
2018-08-13T11:44:33.481Z,100258.91
2018-08-13T11:47:00.977Z,100254.59
2018-08-13T11:49:28.452Z,100260.52
2018-08-13T11:51:56.010Z,100257.31
2018-08-13T11:54:24.374Z,100262.31
2018-08-13T11:56:51.876Z,100272.23
2018-08-13T11:59:19.298Z,100270.24
2018-08-13T12:01:47.610Z,100265.97
2018-08-13T12:04:15.017Z,100276.76
2018-08-13T12:06:42.404Z,100276.32
2018-08-13T12:09:12.206Z,100278.13
2018-08-13T12:11:41.808Z,100282.84
2018-08-13T12:14:09.518Z,100271.56
2018-08-13T12:16:37.152Z,100272.41
2018-08-13T12:19:05.132Z,100270.54
2018-08-13T12:21:32.625Z,100266.64
2018-08-13T12:24:00.247Z,100274.14
2018-08-13T12:26:27.724Z,100268.78
2018-08-13T12:28:55.087Z,100254.28
2018-08-13T12:31:22.457Z,100258.30
2018-08-13T12:33:49.884Z,100261.59
2018-08-13T12:36:17.402Z,100262.94
2018-08-13T12:38:44.864Z,100265.02
2018-08-13T12:41:12.360Z,100266.89
2018-08-13T12:43:39.641Z,100272.86
2018-08-13T12:46:07.242Z,100271.03
2018-08-13T12:48:34.811Z,100264.86
2018-08-13T12:51:02.203Z,100269.59
2018-08-13T12:53:30.494Z,100266.72
2018-08-13T12:55:58.170Z,100255.45
2018-08-13T12:58:25.706Z,100263.27
2018-08-13T13:00:57.098Z,100265.29
2018-08-13T13:03:24.516Z,100268.88
2018-08-13T13:05:51.851Z,100265.09
2018-08-13T13:08:19.178Z,100268.36
2018-08-13T13:10:46.772Z,100276.50
2018-08-13T13:13:14.209Z,100262.48
2018-08-13T13:15:42.516Z,100261.05
2018-08-13T13:18:10.824Z,100276.44
2018-08-13T13:20:38.484Z,100275.80
2018-08-13T13:23:05.826Z,100268.77
2018-08-13T13:25:33.255Z,100270.00
2018-08-13T13:28:00.687Z,100279.20
2018-08-13T13:30:28.375Z,100261.80
2018-08-13T13:32:56.712Z,100275.23
2018-08-13T13:35:25.124Z,100270.86
2018-08-13T13:37:52.929Z,100278.64
2018-08-13T13:40:20.405Z,100281.80
2018-08-13T13:42:47.817Z,100277.50
2018-08-13T13:45:16.605Z,100284.67
2018-08-13T13:47:44.289Z,100288.08
2018-08-13T13:50:14.805Z,100283.45
2018-08-13T13:52:42.397Z,100288.25
2018-08-13T13:55:10.240Z,100286.63
2018-08-13T13:57:37.619Z,100284.67
2018-08-13T14:00:10.142Z,100281.97
2018-08-13T14:02:37.700Z,100290.44
2018-08-13T14:05:05.481Z,100297.23
2018-08-13T14:07:33.226Z,100284.67
2018-08-13T14:10:00.893Z,100296.24
2018-08-13T14:12:28.273Z,100299.22
2018-08-13T14:14:56.359Z,100289.98
2018-08-13T14:17:24.285Z,100297.85
2018-08-13T14:19:51.789Z,100298.39
2018-08-13T14:22:19.325Z,100296.78
2018-08-13T14:24:47.045Z,100302.73
2018-08-13T14:27:14.543Z,100296.66
2018-08-13T14:29:42.843Z,100300.67
2018-08-13T14:32:10.295Z,100296.86
2018-08-13T14:34:38.344Z,100300.95
2018-08-13T14:37:05.948Z,100296.92
2018-08-13T14:39:33.470Z,100304.00
2018-08-13T14:42:01.005Z,100294.97
2018-08-13T14:44:29.241Z,100305.20
2018-08-13T14:46:57.296Z,100306.38
2018-08-13T14:49:24.817Z,100313.02
2018-08-13T14:51:52.474Z,100312.94
2018-08-13T14:54:19.869Z,100309.48
2018-08-13T14:56:47.413Z,100317.35
2018-08-13T14:59:14.794Z,100315.86
2018-08-13T15:01:42.392Z,100314.52
2018-08-13T15:04:10.203Z,100308.19
2018-08-13T15:06:37.823Z,100314.73
2018-08-13T15:09:12.700Z,100311.59
2018-08-13T15:11:41.322Z,100309.45
2018-08-13T15:14:10.972Z,100308.61
2018-08-13T15:16:38.851Z,100314.45
2018-08-13T15:19:06.760Z,100316.20
2018-08-13T15:21:34.263Z,100318.50
2018-08-13T15:24:02.136Z,100319.51
2018-08-13T15:26:29.647Z,100319.48
2018-08-13T15:28:57.352Z,100318.63
2018-08-13T15:31:25.079Z,100315.77
2018-08-13T15:33:52.765Z,100311.81
2018-08-13T15:36:20.555Z,100322.37
2018-08-13T15:38:48.189Z,100319.30
2018-08-13T15:41:15.733Z,100324.55
2018-08-13T15:43:43.068Z,100320.58
2018-08-13T15:46:10.543Z,100324.34
2018-08-13T15:48:37.895Z,100328.75
2018-08-13T15:51:05.397Z,100326.11
2018-08-13T15:53:33.032Z,100330.07
2018-08-13T15:56:00.609Z,100334.89
2018-08-13T15:58:28.133Z,100327.75
2018-08-13T16:00:55.484Z,100329.16
2018-08-13T16:03:23.132Z,100325.20
2018-08-13T16:05:50.756Z,100328.94
2018-08-13T16:08:19.194Z,100333.33
2018-08-13T16:10:46.601Z,100334.60
2018-08-13T16:13:15.153Z,100335.64
2018-08-13T16:15:42.655Z,100342.22
2018-08-13T16:18:10.371Z,100341.67
2018-08-13T16:20:37.962Z,100341.45
2018-08-13T16:23:06.100Z,100349.48
2018-08-13T16:25:34.402Z,100352.92
2018-08-13T16:28:02.414Z,100354.75
2018-08-13T16:30:30.929Z,100353.25
2018-08-13T16:32:58.434Z,100354.80
2018-08-13T16:35:26.019Z,100356.70
2018-08-13T16:37:53.846Z,100360.73
2018-08-13T16:40:21.463Z,100356.19
2018-08-13T16:42:49.481Z,100355.34
2018-08-13T16:45:19.122Z,100353.50
2018-08-13T16:47:47.298Z,100353.44
2018-08-13T16:50:20.515Z,100359.16
2018-08-13T16:52:51.637Z,100359.66
2018-08-13T16:55:19.641Z,100363.59
2018-08-13T16:57:47.425Z,100371.91
2018-08-13T17:00:20.890Z,100368.95
2018-08-13T17:02:48.529Z,100368.12
2018-08-13T17:05:16.145Z,100374.64
2018-08-13T17:07:43.579Z,100372.19
2018-08-13T17:10:15.497Z,100371.17
2018-08-13T17:12:43.508Z,100375.98
2018-08-13T17:15:11.534Z,100373.61
2018-08-13T17:17:39.009Z,100378.12
2018-08-13T17:20:08.809Z,100374.81
2018-08-13T17:22:37.107Z,100384.03
2018-08-13T17:25:07.193Z,100374.65
2018-08-13T17:27:34.833Z,100386.00
2018-08-13T17:30:03.191Z,100379.91
2018-08-13T17:32:30.525Z,100381.08
2018-08-13T17:34:57.904Z,100384.46
2018-08-13T17:37:25.918Z,100383.61
2018-08-13T17:39:53.247Z,100393.30
2018-08-13T17:42:20.934Z,100390.32
2018-08-13T17:44:48.286Z,100397.16
2018-08-13T17:47:15.992Z,100387.81
2018-08-13T17:49:43.463Z,100392.14
2018-08-13T17:52:11.124Z,100389.95
2018-08-13T17:54:39.144Z,100388.64
2018-08-13T17:57:08.361Z,100393.13
2018-08-13T17:59:36.977Z,100392.34
2018-08-13T18:02:04.264Z,100397.82
2018-08-13T18:04:32.646Z,100398.39
2018-08-13T18:07:00.143Z,100399.41
2018-08-13T18:09:28.446Z,100403.58
2018-08-13T18:11:56.223Z,100405.14
2018-08-13T18:14:23.694Z,100407.33
2018-08-13T18:16:51.040Z,100411.82
2018-08-13T18:19:18.615Z,100418.47
2018-08-13T18:21:46.157Z,100421.67
2018-08-13T18:24:13.593Z,100423.67
2018-08-13T18:26:41.400Z,100422.20
2018-08-13T18:29:09.232Z,100422.33
2018-08-13T18:31:36.908Z,100431.41
2018-08-13T18:34:04.633Z,100434.38
2018-08-13T18:36:32.289Z,100428.94
2018-08-13T18:39:00.013Z,100436.94
2018-08-13T18:41:27.503Z,100429.53
2018-08-13T18:43:55.132Z,100439.95
2018-08-13T18:46:22.843Z,100433.03
2018-08-13T18:48:50.596Z,100427.70
2018-08-13T18:51:17.921Z,100440.17
2018-08-13T18:53:45.708Z,100441.50
2018-08-13T18:56:12.973Z,100434.02
2018-08-13T18:58:40.308Z,100435.14
2018-08-13T19:01:08.243Z,100440.45
2018-08-13T19:03:35.551Z,100436.44
2018-08-13T19:06:03.368Z,100441.57
2018-08-13T19:08:30.798Z,100443.86
2018-08-13T19:10:58.396Z,100440.08
2018-08-13T19:13:25.982Z,100447.23
2018-08-13T19:15:53.620Z,100444.82
2018-08-13T19:18:21.075Z,100444.33
2018-08-13T19:20:49.147Z,100440.52
2018-08-13T19:23:17.458Z,100445.95
2018-08-13T19:25:44.979Z,100454.79
2018-08-13T19:28:12.358Z,100453.34
2018-08-13T19:30:39.687Z,100458.17
2018-08-13T19:33:07.514Z,100459.99
2018-08-13T19:35:35.149Z,100456.91
2018-08-13T19:38:02.659Z,100459.83
2018-08-13T19:40:30.109Z,100450.25
2018-08-13T19:42:57.561Z,100458.04
2018-08-13T19:45:26.299Z,100454.09
2018-08-13T19:47:54.145Z,100451.77
2018-08-13T19:50:21.688Z,100459.23
2018-08-13T19:52:49.618Z,100457.70
2018-08-13T19:55:17.581Z,100463.30
2018-08-13T19:57:45.070Z,100467.48
2018-08-13T20:00:19.906Z,100466.72
2018-08-13T20:02:47.806Z,100470.56
2018-08-13T20:05:15.884Z,100474.11
2018-08-13T20:07:43.584Z,100470.19
2018-08-13T20:10:14.645Z,100472.17
2018-08-13T20:12:43.154Z,100470.02
2018-08-13T20:15:11.108Z,100474.27
2018-08-13T20:17:38.521Z,100474.86
2018-08-13T20:20:08.365Z,100473.80
2018-08-13T20:22:36.336Z,100478.11
2018-08-13T20:25:04.016Z,100478.47
2018-08-13T20:27:31.518Z,100478.64
2018-08-13T20:32:33.907Z,100478.14
2018-08-13T20:35:01.323Z,100476.22
2018-08-13T20:37:29.682Z,100482.02
2018-08-13T20:39:57.064Z,100476.97
2018-08-13T20:42:25.095Z,100481.34
2018-08-13T20:44:52.670Z,100476.77
2018-08-13T20:47:20.243Z,100483.54
2018-08-13T20:49:47.658Z,100478.78
2018-08-13T20:52:14.954Z,100482.09
2018-08-13T20:54:42.285Z,100483.02
2018-08-13T20:57:09.912Z,100489.73
2018-08-13T20:59:37.240Z,100486.86
2018-08-13T21:02:05.867Z,100490.93
2018-08-13T21:04:33.184Z,100492.83
2018-08-13T21:07:00.464Z,100495.69
2018-08-13T21:09:27.735Z,100496.95
2018-08-13T21:11:55.042Z,100500.97
2018-08-13T21:14:22.356Z,100505.20
2018-08-13T21:16:49.707Z,100504.74
2018-08-13T21:19:17.084Z,100512.20
2018-08-13T21:21:44.545Z,100508.42
2018-08-13T21:24:12.028Z,100502.02
2018-08-13T21:26:39.518Z,100509.27
2018-08-13T21:29:06.827Z,100512.19
2018-08-13T21:31:34.135Z,100511.45
2018-08-13T21:34:01.591Z,100515.44
2018-08-13T21:36:28.941Z,100519.66
2018-08-13T21:38:56.397Z,100521.84
2018-08-13T21:41:23.731Z,100524.48
2018-08-13T21:43:51.089Z,100528.27
2018-08-13T21:46:18.512Z,100528.29
2018-08-13T21:48:46.002Z,100530.98
2018-08-13T21:51:13.717Z,100529.53
2018-08-13T21:53:41.127Z,100533.45
2018-08-13T21:56:08.616Z,100527.58
2018-08-13T21:58:37.201Z,100529.31
2018-08-13T22:01:10.278Z,100528.02
2018-08-13T22:03:39.934Z,100533.98
2018-08-13T22:06:07.229Z,100538.53
2018-08-13T22:08:34.986Z,100532.55
2018-08-13T22:11:02.269Z,100533.70
2018-08-13T22:13:29.573Z,100540.03
2018-08-13T22:15:56.945Z,100542.77
2018-08-13T22:18:25.233Z,100543.64
2018-08-13T22:20:53.047Z,100547.78
2018-08-13T22:23:20.395Z,100541.30
2018-08-13T22:25:47.742Z,100548.24
2018-08-13T22:28:16.766Z,100552.11
2018-08-13T22:30:44.250Z,100548.87
2018-08-13T22:33:11.979Z,100553.62
2018-08-13T22:35:39.460Z,100557.14
2018-08-13T22:38:07.433Z,100559.36
2018-08-13T22:40:35.511Z,100554.09
2018-08-13T22:43:02.902Z,100557.47
2018-08-13T22:45:30.186Z,100563.96
2018-08-13T22:47:57.553Z,100563.77
2018-08-13T22:50:25.612Z,100559.33
2018-08-13T22:52:52.919Z,100569.81
2018-08-13T22:55:20.322Z,100570.56
2018-08-13T22:57:48.035Z,100574.41
2018-08-13T23:00:17.307Z,100577.66
2018-08-13T23:02:45.378Z,100579.87
2018-08-13T23:05:15.396Z,100580.97
2018-08-13T23:07:42.665Z,100579.54
2018-08-13T23:10:12.182Z,100582.48
2018-08-13T23:12:39.473Z,100584.44
2018-08-13T23:15:09.707Z,100589.04
2018-08-13T23:17:37.205Z,100587.45
2018-08-13T23:20:06.565Z,100593.19
2018-08-13T23:23:02.935Z,100595.91
2018-08-13T23:25:32.430Z,100598.17
2018-08-13T23:28:01.531Z,100600.58
2018-08-13T23:30:29.100Z,100601.11
2018-08-13T23:32:57.151Z,100605.63
2018-08-13T23:35:25.165Z,100606.64
2018-08-13T23:37:52.905Z,100602.27
2018-08-13T23:40:20.451Z,100603.56
2018-08-13T23:42:47.770Z,100606.64
2018-08-13T23:45:16.304Z,100603.67
2018-08-13T23:47:43.758Z,100605.86
2018-08-13T23:50:15.664Z,100608.16
2018-08-13T23:52:42.977Z,100604.77
2018-08-13T23:55:15.954Z,100609.07
2018-08-13T23:57:43.280Z,100614.00
